Lookout Heights, Kentucky
Current Conditions -  °F | °C
As of 1:37 AM on Thursday 29 Jan 2015 (Local Time) from KI69 Reporting Station
Clear Clear  
Wind Chill: 26°   Ceiling: Unl
Heat Index: 32°   Visibility: 10mi
Dew Point: 23°   Wind: 6mph
Humidity: 69%   Direction: 140°SE
Pressure: 30.09"   Gusts: NA
Location:  39.0659°N, 84.5309°W
Report Text: KI69 290637Z AUTO 14005KT 10SM CLR 00/M05 A3009 RMK AO1
Loading
Personal Weather Stations






























Interactive Weather Map New forecast layout! Learn more

10-Day Weather Forecast

Advertisements
Track Severe Weather on mobile